sensor_id;sensor_type;location;lat;lon;timestamp;temperature;humidity
1992;DHT22;997;48.448;8.924;2023-04-03T05:24:49;3.60;99.90
1992;DHT22;997;48.448;8.924;2023-04-03T05:27:14;3.60;99.90
1992;DHT22;997;48.448;8.924;2023-04-03T05:29:40;3.60;99.90
1992;DHT22;997;48.448;8.924;2023-04-03T05:32:09;3.60;99.90
1992;DHT22;997;48.448;8.924;2023-04-03T05:34:35;3.60;99.90
1992;DHT22;997;48.448;8.924;2023-04-03T05:37:00;3.70;99.90
1992;DHT22;997;48.448;8.924;2023-04-03T05:39:28;3.80;99.90
1992;DHT22;997;48.448;8.924;2023-04-03T05:41:54;3.80;99.90
1992;DHT22;997;48.448;8.924;2023-04-03T05:44:19;3.90;99.90
1992;DHT22;997;48.448;8.924;2023-04-03T05:46:45;3.90;99.90
1992;DHT22;997;48.448;8.924;2023-04-03T05:49:11;4.00;99.90
1992;DHT22;997;48.448;8.924;2023-04-03T05:51:38;4.00;99.90
1992;DHT22;997;48.448;8.924;2023-04-03T05:54:17;3.80;99.90
1992;DHT22;997;48.448;8.924;2023-04-03T05:56:43;3.60;99.90
1992;DHT22;997;48.448;8.924;2023-04-03T05:59:09;3.50;99.90
1992;DHT22;997;48.448;8.924;2023-04-03T06:01:35;3.50;99.90
1992;DHT22;997;48.448;8.924;2023-04-03T06:04:01;3.50;99.90
1992;DHT22;997;48.448;8.924;2023-04-03T06:06:46;3.60;99.90
1992;DHT22;997;48.448;8.924;2023-04-03T06:09:13;3.70;99.90
1992;DHT22;997;48.448;8.924;2023-04-03T06:11:39;3.70;99.90
1992;DHT22;997;48.448;8.924;2023-04-03T06:14:06;3.80;99.90
1992;DHT22;997;48.448;8.924;2023-04-03T06:16:32;4.00;99.90
1992;DHT22;997;48.448;8.924;2023-04-03T06:18:57;3.90;99.90
1992;DHT22;997;48.448;8.924;2023-04-03T06:21:23;3.90;99.90
1992;DHT22;997;48.448;8.924;2023-04-03T06:23:49;4.00;99.90
1992;DHT22;997;48.448;8.924;2023-04-03T06:26:14;3.90;99.90
1992;DHT22;997;48.448;8.924;2023-04-03T06:28:40;4.00;99.90
1992;DHT22;997;48.448;8.924;2023-04-03T06:31:06;4.00;99.90
1992;DHT22;997;48.448;8.924;2023-04-03T06:33:31;4.00;99.90
1992;DHT22;997;48.448;8.924;2023-04-03T06:35:58;4.00;99.90
1992;DHT22;997;48.448;8.924;2023-04-03T06:38:25;4.00;99.90
1992;DHT22;997;48.448;8.924;2023-04-03T06:40:51;4.00;99.90
1992;DHT22;997;48.448;8.924;2023-04-03T06:43:17;4.00;99.90
1992;DHT22;997;48.448;8.924;2023-04-03T06:45:43;4.00;99.90
1992;DHT22;997;48.448;8.924;2023-04-03T06:48:08;4.00;99.90
1992;DHT22;997;48.448;8.924;2023-04-03T06:50:34;4.10;99.90
1992;DHT22;997;48.448;8.924;2023-04-03T06:53:00;4.10;99.90
1992;DHT22;997;48.448;8.924;2023-04-03T06:55:26;4.00;99.90
1992;DHT22;997;48.448;8.924;2023-04-03T06:57:52;3.90;99.90
1992;DHT22;997;48.448;8.924;2023-04-03T07:00:18;3.90;99.90
1992;DHT22;997;48.448;8.924;2023-04-03T07:02:44;4.00;99.90
1992;DHT22;997;48.448;8.924;2023-04-03T07:05:10;4.00;99.90
1992;DHT22;997;48.448;8.924;2023-04-03T07:07:37;4.10;99.90
1992;DHT22;997;48.448;8.924;2023-04-03T07:10:04;4.10;99.90
1992;DHT22;997;48.448;8.924;2023-04-03T07:12:29;4.10;99.90
1992;DHT22;997;48.448;8.924;2023-04-03T07:14:55;4.20;99.90
1992;DHT22;997;48.448;8.924;2023-04-03T07:17:21;4.30;99.90
1992;DHT22;997;48.448;8.924;2023-04-03T07:19:46;4.40;99.90
1992;DHT22;997;48.448;8.924;2023-04-03T07:22:12;4.40;99.90
1992;DHT22;997;48.448;8.924;2023-04-03T07:24:38;4.30;99.90
1992;DHT22;997;48.448;8.924;2023-04-03T07:27:04;4.30;99.90
1992;DHT22;997;48.448;8.924;2023-04-03T07:29:29;4.30;99.90
1992;DHT22;997;48.448;8.924;2023-04-03T07:31:55;4.20;99.90
1992;DHT22;997;48.448;8.924;2023-04-03T07:34:21;4.20;99.90
1992;DHT22;997;48.448;8.924;2023-04-03T07:36:47;4.30;99.90
1992;DHT22;997;48.448;8.924;2023-04-03T07:39:12;4.30;99.90
1992;DHT22;997;48.448;8.924;2023-04-03T07:41:38;4.40;99.90
1992;DHT22;997;48.448;8.924;2023-04-03T07:44:04;4.40;99.90
1992;DHT22;997;48.448;8.924;2023-04-03T07:46:31;4.60;99.90
1992;DHT22;997;48.448;8.924;2023-04-03T07:48:57;4.70;99.90
1992;DHT22;997;48.448;8.924;2023-04-03T07:51:23;5.00;99.90
1992;DHT22;997;48.448;8.924;2023-04-03T07:53:50;5.10;99.90
1992;DHT22;997;48.448;8.924;2023-04-03T07:56:16;5.20;99.90
1992;DHT22;997;48.448;8.924;2023-04-03T07:58:42;5.30;99.90
1992;DHT22;997;48.448;8.924;2023-04-03T08:01:08;5.40;99.90
1992;DHT22;997;48.448;8.924;2023-04-03T08:03:34;5.40;99.90
1992;DHT22;997;48.448;8.924;2023-04-03T08:06:05;5.30;99.90
1992;DHT22;997;48.448;8.924;2023-04-03T08:08:32;5.20;99.90
1992;DHT22;997;48.448;8.924;2023-04-03T08:10:59;5.20;99.90
1992;DHT22;997;48.448;8.924;2023-04-03T08:13:26;5.20;99.90
1992;DHT22;997;48.448;8.924;2023-04-03T08:15:52;5.30;99.90
1992;DHT22;997;48.448;8.924;2023-04-03T08:18:18;5.40;99.90
1992;DHT22;997;48.448;8.924;2023-04-03T08:20:47;5.20;99.90
1992;DHT22;997;48.448;8.924;2023-04-03T08:23:13;5.20;99.90
1992;DHT22;997;48.448;8.924;2023-04-03T08:25:41;5.20;99.90
1992;DHT22;997;48.448;8.924;2023-04-03T08:28:08;5.20;99.90
1992;DHT22;997;48.448;8.924;2023-04-03T08:30:35;5.30;99.90
1992;DHT22;997;48.448;8.924;2023-04-03T08:33:02;5.40;99.90
1992;DHT22;997;48.448;8.924;2023-04-03T08:35:28;5.50;99.90
1992;DHT22;997;48.448;8.924;2023-04-03T08:37:54;5.50;99.90
1992;DHT22;997;48.448;8.924;2023-04-03T08:40:19;5.60;99.90
1992;DHT22;997;48.448;8.924;2023-04-03T08:46:06;5.80;99.90
1992;DHT22;997;48.448;8.924;2023-04-03T08:48:40;5.80;99.90
1992;DHT22;997;48.448;8.924;2023-04-03T08:51:14;5.90;99.90
1992;DHT22;997;48.448;8.924;2023-04-03T08:53:45;6.00;99.90
1992;DHT22;997;48.448;8.924;2023-04-03T08:56:12;5.90;99.90
1992;DHT22;997;48.448;8.924;2023-04-03T08:59:07;5.80;99.90
1992;DHT22;997;48.448;8.924;2023-04-03T09:01:38;5.80;99.90
1992;DHT22;997;48.448;8.924;2023-04-03T09:04:13;5.80;99.90
1992;DHT22;997;48.448;8.924;2023-04-03T09:06:43;5.80;99.90
1992;DHT22;997;48.448;8.924;2023-04-03T09:12:25;5.80;99.90
1992;DHT22;997;48.448;8.924;2023-04-03T09:20:23;5.80;99.90
1992;DHT22;997;48.448;8.924;2023-04-03T09:22:51;5.80;99.90
1992;DHT22;997;48.448;8.924;2023-04-03T09:25:33;5.90;99.90
1992;DHT22;997;48.448;8.924;2023-04-03T09:28:00;5.90;99.90
1992;DHT22;997;48.448;8.924;2023-04-03T09:30:27;6.00;99.90
1992;DHT22;997;48.448;8.924;2023-04-03T09:32:56;6.00;99.90
1992;DHT22;997;48.448;8.924;2023-04-03T09:35:33;6.00;99.90
1992;DHT22;997;48.448;8.924;2023-04-03T09:38:02;6.10;99.90
1992;DHT22;997;48.448;8.924;2023-04-03T09:40:51;6.20;99.90
1992;DHT22;997;48.448;8.924;2023-04-03T09:43:31;6.30;99.90
1992;DHT22;997;48.448;8.924;2023-04-03T09:46:17;6.30;99.90
1992;DHT22;997;48.448;8.924;2023-04-03T09:48:57;6.50;99.90
1992;DHT22;997;48.448;8.924;2023-04-03T09:51:27;6.60;99.90
1992;DHT22;997;48.448;8.924;2023-04-03T09:53:54;6.50;99.90
1992;DHT22;997;48.448;8.924;2023-04-03T09:56:23;6.60;99.90
1992;DHT22;997;48.448;8.924;2023-04-03T10:06:34;6.40;99.90
1992;DHT22;997;48.448;8.924;2023-04-03T10:11:58;6.50;99.90
1992;DHT22;997;48.448;8.924;2023-04-03T10:14:25;6.70;99.90
1992;DHT22;997;48.448;8.924;2023-04-03T10:20:06;6.60;99.90
1992;DHT22;997;48.448;8.924;2023-04-03T10:25:35;6.50;99.90
1992;DHT22;997;48.448;8.924;2023-04-03T10:28:29;6.70;99.90
1992;DHT22;997;48.448;8.924;2023-04-03T10:33:28;6.90;99.90
1992;DHT22;997;48.448;8.924;2023-04-03T10:46:42;6.90;99.90
1992;DHT22;997;48.448;8.924;2023-04-03T10:52:02;6.90;99.90
1992;DHT22;997;48.448;8.924;2023-04-03T10:54:40;6.80;99.90
1992;DHT22;997;48.448;8.924;2023-04-03T10:57:10;6.80;99.90
1992;DHT22;997;48.448;8.924;2023-04-03T10:59:45;6.70;99.90
1992;DHT22;997;48.448;8.924;2023-04-03T11:02:28;6.60;99.90
1992;DHT22;997;48.448;8.924;2023-04-03T11:05:00;6.80;99.90
1992;DHT22;997;48.448;8.924;2023-04-03T11:07:29;6.90;99.90
1992;DHT22;997;48.448;8.924;2023-04-03T11:10:05;6.90;99.90
1992;DHT22;997;48.448;8.924;2023-04-03T11:12:43;7.10;99.90
1992;DHT22;997;48.448;8.924;2023-04-03T11:15:16;7.30;99.90
1992;DHT22;997;48.448;8.924;2023-04-03T11:17:51;7.60;99.90
1992;DHT22;997;48.448;8.924;2023-04-03T11:20:20;7.70;99.90
1992;DHT22;997;48.448;8.924;2023-04-03T11:25:44;7.70;99.90
1992;DHT22;997;48.448;8.924;2023-04-03T11:28:15;7.70;99.90
1992;DHT22;997;48.448;8.924;2023-04-03T11:34:05;7.30;99.90
1992;DHT22;997;48.448;8.924;2023-04-03T11:36:51;7.20;99.90
1992;DHT22;997;48.448;8.924;2023-04-03T11:42:20;7.00;99.90
1992;DHT22;997;48.448;8.924;2023-04-03T11:44:48;7.00;99.90
1992;DHT22;997;48.448;8.924;2023-04-03T11:47:44;6.80;99.90
1992;DHT22;997;48.448;8.924;2023-04-03T11:50:31;6.70;99.90
1992;DHT22;997;48.448;8.924;2023-04-03T11:53:48;6.70;99.90
1992;DHT22;997;48.448;8.924;2023-04-03T12:29:33;6.90;99.90
1992;DHT22;997;48.448;8.924;2023-04-03T12:34:55;7.20;99.90
1992;DHT22;997;48.448;8.924;2023-04-03T12:48:16;7.00;99.90
1992;DHT22;997;48.448;8.924;2023-04-03T12:50:45;6.90;99.90
1992;DHT22;997;48.448;8.924;2023-04-03T12:53:18;6.90;99.90
1992;DHT22;997;48.448;8.924;2023-04-03T12:55:44;6.80;99.90
1992;DHT22;997;48.448;8.924;2023-04-03T12:58:25;6.80;99.90
1992;DHT22;997;48.448;8.924;2023-04-03T13:01:21;6.80;99.90
1992;DHT22;997;48.448;8.924;2023-04-03T13:03:53;6.70;99.90
1992;DHT22;997;48.448;8.924;2023-04-03T13:06:56;6.80;99.90
1992;DHT22;997;48.448;8.924;2023-04-03T13:09:22;6.90;99.90
1992;DHT22;997;48.448;8.924;2023-04-03T13:11:50;7.20;99.90
1992;DHT22;997;48.448;8.924;2023-04-03T13:14:19;7.30;99.90
1992;DHT22;997;48.448;8.924;2023-04-03T13:16:57;7.40;99.90
1992;DHT22;997;48.448;8.924;2023-04-03T13:19:26;7.40;99.90
1992;DHT22;997;48.448;8.924;2023-04-03T13:22:04;7.30;99.90
1992;DHT22;997;48.448;8.924;2023-04-03T13:24:33;7.30;99.90
1992;DHT22;997;48.448;8.924;2023-04-03T13:27:01;7.30;99.90
1992;DHT22;997;48.448;8.924;2023-04-03T13:29:30;7.30;99.90
1992;DHT22;997;48.448;8.924;2023-04-03T13:31:57;7.20;99.90
1992;DHT22;997;48.448;8.924;2023-04-03T13:34:25;7.00;99.90
1992;DHT22;997;48.448;8.924;2023-04-03T13:39:25;7.00;99.90
1992;DHT22;997;48.448;8.924;2023-04-03T13:41:57;7.00;99.90
1992;DHT22;997;48.448;8.924;2023-04-03T13:46:54;7.10;99.90
1992;DHT22;997;48.448;8.924;2023-04-03T13:49:36;7.10;99.90
1992;DHT22;997;48.448;8.924;2023-04-03T13:54:58;7.40;99.90
1992;DHT22;997;48.448;8.924;2023-04-03T13:57:25;7.30;99.90
1992;DHT22;997;48.448;8.924;2023-04-03T13:59:51;7.40;99.90
1992;DHT22;997;48.448;8.924;2023-04-03T14:02:32;7.40;99.90
1992;DHT22;997;48.448;8.924;2023-04-03T14:05:00;7.40;99.90
1992;DHT22;997;48.448;8.924;2023-04-03T14:07:28;7.30;99.90
1992;DHT22;997;48.448;8.924;2023-04-03T14:09:55;7.30;99.90
1992;DHT22;997;48.448;8.924;2023-04-03T14:12:24;7.30;99.90
1992;DHT22;997;48.448;8.924;2023-04-03T14:14:51;7.30;99.90
1992;DHT22;997;48.448;8.924;2023-04-03T14:17:21;7.20;99.90
1992;DHT22;997;48.448;8.924;2023-04-03T14:19:48;7.00;99.90
1992;DHT22;997;48.448;8.924;2023-04-03T14:24:49;7.10;99.90
1992;DHT22;997;48.448;8.924;2023-04-03T14:27:22;7.00;99.90
1992;DHT22;997;48.448;8.924;2023-04-03T14:29:50;7.00;99.90
1992;DHT22;997;48.448;8.924;2023-04-03T14:32:18;7.00;99.90
1992;DHT22;997;48.448;8.924;2023-04-03T14:34:44;7.10;99.90
1992;DHT22;997;48.448;8.924;2023-04-03T14:37:16;7.20;99.90
1992;DHT22;997;48.448;8.924;2023-04-03T14:39:43;7.10;99.90
1992;DHT22;997;48.448;8.924;2023-04-03T14:42:14;7.00;99.90
1992;DHT22;997;48.448;8.924;2023-04-03T14:44:41;7.00;99.90
1992;DHT22;997;48.448;8.924;2023-04-03T14:47:19;7.00;99.90
1992;DHT22;997;48.448;8.924;2023-04-03T14:49:46;7.10;99.90
1992;DHT22;997;48.448;8.924;2023-04-03T14:54:47;7.30;99.90
1992;DHT22;997;48.448;8.924;2023-04-03T14:57:14;7.30;99.90
1992;DHT22;997;48.448;8.924;2023-04-03T14:59:41;7.10;99.90
1992;DHT22;997;48.448;8.924;2023-04-03T15:02:35;7.10;99.90
1992;DHT22;997;48.448;8.924;2023-04-03T15:05:03;7.10;99.90
1992;DHT22;997;48.448;8.924;2023-04-03T15:07:32;7.00;99.90
1992;DHT22;997;48.448;8.924;2023-04-03T15:10:25;6.90;99.90
1992;DHT22;997;48.448;8.924;2023-04-03T15:12:50;6.90;99.90
1992;DHT22;997;48.448;8.924;2023-04-03T15:15:18;7.00;99.90
1992;DHT22;997;48.448;8.924;2023-04-03T15:17:46;7.00;99.90
1992;DHT22;997;48.448;8.924;2023-04-03T15:20:20;7.20;99.90
1992;DHT22;997;48.448;8.924;2023-04-03T15:22:46;7.20;99.90
1992;DHT22;997;48.448;8.924;2023-04-03T15:25:12;7.10;99.90
1992;DHT22;997;48.448;8.924;2023-04-03T15:27:38;7.20;99.90
1992;DHT22;997;48.448;8.924;2023-04-03T15:30:05;7.20;99.90
1992;DHT22;997;48.448;8.924;2023-04-03T15:32:31;7.10;99.90
1992;DHT22;997;48.448;8.924;2023-04-03T15:34:59;7.20;99.90
1992;DHT22;997;48.448;8.924;2023-04-03T15:37:24;7.30;99.90
1992;DHT22;997;48.448;8.924;2023-04-03T15:39:50;7.40;99.90
1992;DHT22;997;48.448;8.924;2023-04-03T15:42:16;7.30;99.90
1992;DHT22;997;48.448;8.924;2023-04-03T15:44:42;7.30;99.90
1992;DHT22;997;48.448;8.924;2023-04-03T15:47:07;7.10;99.90
1992;DHT22;997;48.448;8.924;2023-04-03T15:49:34;7.00;99.90
1992;DHT22;997;48.448;8.924;2023-04-03T15:52:00;7.10;99.90
1992;DHT22;997;48.448;8.924;2023-04-03T15:54:26;7.20;99.90
1992;DHT22;997;48.448;8.924;2023-04-03T15:56:53;7.30;99.90
1992;DHT22;997;48.448;8.924;2023-04-03T15:59:19;7.20;99.90
1992;DHT22;997;48.448;8.924;2023-04-03T16:01:45;7.30;99.90
1992;DHT22;997;48.448;8.924;2023-04-03T16:04:11;7.40;99.90
1992;DHT22;997;48.448;8.924;2023-04-03T16:06:38;7.60;99.90
1992;DHT22;997;48.448;8.924;2023-04-03T16:09:04;7.60;99.90
1992;DHT22;997;48.448;8.924;2023-04-03T16:11:30;7.60;99.90
1992;DHT22;997;48.448;8.924;2023-04-03T16:13:56;7.60;99.90
1992;DHT22;997;48.448;8.924;2023-04-03T16:16:23;7.60;99.90
1992;DHT22;997;48.448;8.924;2023-04-03T16:18:50;7.40;99.90
1992;DHT22;997;48.448;8.924;2023-04-03T16:21:16;7.10;99.90
1992;DHT22;997;48.448;8.924;2023-04-03T16:23:43;7.00;99.90
1992;DHT22;997;48.448;8.924;2023-04-03T16:26:09;6.80;99.90
1992;DHT22;997;48.448;8.924;2023-04-03T16:28:35;6.70;99.90
1992;DHT22;997;48.448;8.924;2023-04-03T16:31:01;6.60;99.90
1992;DHT22;997;48.448;8.924;2023-04-03T16:33:27;6.60;99.90
1992;DHT22;997;48.448;8.924;2023-04-03T16:35:53;6.70;99.90
1992;DHT22;997;48.448;8.924;2023-04-03T16:38:19;6.70;99.90
1992;DHT22;997;48.448;8.924;2023-04-03T16:40:45;6.90;99.90
1992;DHT22;997;48.448;8.924;2023-04-03T16:43:11;6.90;99.90
1992;DHT22;997;48.448;8.924;2023-04-03T16:45:37;7.10;99.90
1992;DHT22;997;48.448;8.924;2023-04-03T16:48:03;7.20;99.90
1992;DHT22;997;48.448;8.924;2023-04-03T16:50:29;7.00;99.90
1992;DHT22;997;48.448;8.924;2023-04-03T16:52:55;6.90;99.90
1992;DHT22;997;48.448;8.924;2023-04-03T16:55:20;6.70;99.90
1992;DHT22;997;48.448;8.924;2023-04-03T16:57:46;6.70;99.90
1992;DHT22;997;48.448;8.924;2023-04-03T17:00:12;6.60;99.90
1992;DHT22;997;48.448;8.924;2023-04-03T17:02:39;6.70;99.90
1992;DHT22;997;48.448;8.924;2023-04-03T17:05:05;6.80;99.90
1992;DHT22;997;48.448;8.924;2023-04-03T17:07:31;6.90;99.90
1992;DHT22;997;48.448;8.924;2023-04-03T17:09:57;7.20;99.90
1992;DHT22;997;48.448;8.924;2023-04-03T17:12:23;7.30;99.90
1992;DHT22;997;48.448;8.924;2023-04-03T17:14:49;7.40;99.90
1992;DHT22;997;48.448;8.924;2023-04-03T17:17:18;7.30;99.90
1992;DHT22;997;48.448;8.924;2023-04-03T17:19:45;7.20;99.90
1992;DHT22;997;48.448;8.924;2023-04-03T17:22:10;7.30;99.90
1992;DHT22;997;48.448;8.924;2023-04-03T17:24:36;7.40;99.90
1992;DHT22;997;48.448;8.924;2023-04-03T17:27:03;7.40;99.90
1992;DHT22;997;48.448;8.924;2023-04-03T17:29:29;7.20;99.90
1992;DHT22;997;48.448;8.924;2023-04-03T17:31:54;7.10;99.90
1992;DHT22;997;48.448;8.924;2023-04-03T17:34:20;6.90;99.90
1992;DHT22;997;48.448;8.924;2023-04-03T17:36:47;6.70;99.90
1992;DHT22;997;48.448;8.924;2023-04-03T17:39:13;6.50;99.90
1992;DHT22;997;48.448;8.924;2023-04-03T17:41:39;6.40;99.90
1992;DHT22;997;48.448;8.924;2023-04-03T17:44:05;6.20;99.90
1992;DHT22;997;48.448;8.924;2023-04-03T17:46:31;6.10;99.90
1992;DHT22;997;48.448;8.924;2023-04-03T17:48:57;5.90;99.90
1992;DHT22;997;48.448;8.924;2023-04-03T17:51:27;5.80;99.90
1992;DHT22;997;48.448;8.924;2023-04-03T17:53:53;5.80;99.90
1992;DHT22;997;48.448;8.924;2023-04-03T17:56:24;5.70;99.90
1992;DHT22;997;48.448;8.924;2023-04-03T17:58:55;5.60;99.90
1992;DHT22;997;48.448;8.924;2023-04-03T18:01:33;5.50;99.90
1992;DHT22;997;48.448;8.924;2023-04-03T18:04:02;5.50;99.90
1992;DHT22;997;48.448;8.924;2023-04-03T18:06:41;5.40;99.90
1992;DHT22;997;48.448;8.924;2023-04-03T18:09:16;5.40;99.90
1992;DHT22;997;48.448;8.924;2023-04-03T18:11:44;5.30;99.90
1992;DHT22;997;48.448;8.924;2023-04-03T18:14:12;5.50;99.90
1992;DHT22;997;48.448;8.924;2023-04-03T18:16:38;5.50;99.90
1992;DHT22;997;48.448;8.924;2023-04-03T18:19:04;5.60;99.90
1992;DHT22;997;48.448;8.924;2023-04-03T18:21:31;5.60;99.90
1992;DHT22;997;48.448;8.924;2023-04-03T18:23:57;5.50;99.90
1992;DHT22;997;48.448;8.924;2023-04-03T18:26:25;5.50;99.90
1992;DHT22;997;48.448;8.924;2023-04-03T18:28:59;5.40;99.90
1992;DHT22;997;48.448;8.924;2023-04-03T18:31:26;5.40;99.90
1992;DHT22;997;48.448;8.924;2023-04-03T18:33:54;5.40;99.90
1992;DHT22;997;48.448;8.924;2023-04-03T18:36:23;5.30;99.90
1992;DHT22;997;48.448;8.924;2023-04-03T18:38:49;5.30;99.90
1992;DHT22;997;48.448;8.924;2023-04-03T18:41:15;5.30;99.90
1992;DHT22;997;48.448;8.924;2023-04-03T18:43:42;5.30;99.90
1992;DHT22;997;48.448;8.924;2023-04-03T18:46:08;5.40;99.90
1992;DHT22;997;48.448;8.924;2023-04-03T18:48:34;5.30;99.90
1992;DHT22;997;48.448;8.924;2023-04-03T18:51:00;5.20;99.90
1992;DHT22;997;48.448;8.924;2023-04-03T18:53:27;5.20;99.90
1992;DHT22;997;48.448;8.924;2023-04-03T18:55:53;5.20;99.90
1992;DHT22;997;48.448;8.924;2023-04-03T18:58:18;5.10;99.90
1992;DHT22;997;48.448;8.924;2023-04-03T19:00:44;5.20;99.90
1992;DHT22;997;48.448;8.924;2023-04-03T19:03:10;5.30;99.90
1992;DHT22;997;48.448;8.924;2023-04-03T19:05:37;5.40;99.90
1992;DHT22;997;48.448;8.924;2023-04-03T19:08:03;5.30;99.90
1992;DHT22;997;48.448;8.924;2023-04-03T19:10:29;5.20;99.90
1992;DHT22;997;48.448;8.924;2023-04-03T19:12:55;5.10;99.90
1992;DHT22;997;48.448;8.924;2023-04-03T19:15:22;5.00;99.90
1992;DHT22;997;48.448;8.924;2023-04-03T19:17:50;5.00;99.90
1992;DHT22;997;48.448;8.924;2023-04-03T19:20:17;4.90;99.90
1992;DHT22;997;48.448;8.924;2023-04-03T19:22:43;4.90;99.90
1992;DHT22;997;48.448;8.924;2023-04-03T19:25:09;5.00;99.90
1992;DHT22;997;48.448;8.924;2023-04-03T19:27:37;5.10;99.90
1992;DHT22;997;48.448;8.924;2023-04-03T19:30:04;5.00;99.90
1992;DHT22;997;48.448;8.924;2023-04-03T19:32:30;5.10;99.90
1992;DHT22;997;48.448;8.924;2023-04-03T19:34:57;4.90;99.90
1992;DHT22;997;48.448;8.924;2023-04-03T19:37:23;5.10;99.90
1992;DHT22;997;48.448;8.924;2023-04-03T19:39:50;5.10;99.90
1992;DHT22;997;48.448;8.924;2023-04-03T19:42:16;5.20;99.90
1992;DHT22;997;48.448;8.924;2023-04-03T19:44:43;5.30;99.90
1992;DHT22;997;48.448;8.924;2023-04-03T19:47:10;5.30;99.90
1992;DHT22;997;48.448;8.924;2023-04-03T19:49:36;5.10;99.90
1992;DHT22;997;48.448;8.924;2023-04-03T19:52:03;5.30;99.90
1992;DHT22;997;48.448;8.924;2023-04-03T19:54:28;5.40;99.90
1992;DHT22;997;48.448;8.924;2023-04-03T19:56:55;5.40;99.90
1992;DHT22;997;48.448;8.924;2023-04-03T19:59:21;5.40;99.90
1992;DHT22;997;48.448;8.924;2023-04-03T20:01:46;5.40;99.90
1992;DHT22;997;48.448;8.924;2023-04-03T20:04:12;5.40;99.90
1992;DHT22;997;48.448;8.924;2023-04-03T20:06:38;5.30;99.90
1992;DHT22;997;48.448;8.924;2023-04-03T20:09:03;5.30;99.90
1992;DHT22;997;48.448;8.924;2023-04-03T20:11:29;5.20;99.90
1992;DHT22;997;48.448;8.924;2023-04-03T20:13:56;5.30;99.90
1992;DHT22;997;48.448;8.924;2023-04-03T20:16:22;5.30;99.90
1992;DHT22;997;48.448;8.924;2023-04-03T20:18:51;5.30;99.90
1992;DHT22;997;48.448;8.924;2023-04-03T20:21:19;5.20;99.90
1992;DHT22;997;48.448;8.924;2023-04-03T20:23:45;5.10;99.90
1992;DHT22;997;48.448;8.924;2023-04-03T20:26:19;5.00;99.90
1992;DHT22;997;48.448;8.924;2023-04-03T20:28:49;4.80;99.90
1992;DHT22;997;48.448;8.924;2023-04-03T20:31:15;4.90;99.90
1992;DHT22;997;48.448;8.924;2023-04-03T20:33:41;4.80;99.90
1992;DHT22;997;48.448;8.924;2023-04-03T20:36:07;4.90;99.90
1992;DHT22;997;48.448;8.924;2023-04-03T20:38:33;4.70;99.90
1992;DHT22;997;48.448;8.924;2023-04-03T20:40:59;4.70;99.90
1992;DHT22;997;48.448;8.924;2023-04-03T20:43:25;4.60;99.90
1992;DHT22;997;48.448;8.924;2023-04-03T20:45:50;4.60;99.90
1992;DHT22;997;48.448;8.924;2023-04-03T20:48:17;4.60;99.90
1992;DHT22;997;48.448;8.924;2023-04-03T20:50:43;4.60;99.90
1992;DHT22;997;48.448;8.924;2023-04-03T20:53:10;4.60;99.90
1992;DHT22;997;48.448;8.924;2023-04-03T20:55:36;4.40;99.90
1992;DHT22;997;48.448;8.924;2023-04-03T20:58:03;4.20;99.90
1992;DHT22;997;48.448;8.924;2023-04-03T21:00:29;4.20;99.90
1992;DHT22;997;48.448;8.924;2023-04-03T21:02:58;4.10;99.90
1992;DHT22;997;48.448;8.924;2023-04-03T21:05:26;4.20;99.90
1992;DHT22;997;48.448;8.924;2023-04-03T21:19:29;3.80;99.90
1992;DHT22;997;48.448;8.924;2023-04-03T21:21:58;3.70;99.90
1992;DHT22;997;48.448;8.924;2023-04-03T21:24:25;3.60;99.90
1992;DHT22;997;48.448;8.924;2023-04-03T21:26:51;3.50;99.90
1992;DHT22;997;48.448;8.924;2023-04-03T21:29:17;3.30;99.90
